sensor_id;sensor_type;location;lat;lon;timestamp;P1;durP1;ratioP1;P2;durP2;ratioP2
47589;SDS011;33316;52.298;9.056;2023-08-24T00:01:02;1.00;;;0.50;;
47589;SDS011;33316;52.298;9.056;2023-08-24T00:03:30;1.88;;;0.60;;
47589;SDS011;33316;52.298;9.056;2023-08-24T00:05:57;1.88;;;0.65;;
47589;SDS011;33316;52.298;9.056;2023-08-24T00:08:24;2.42;;;0.50;;
47589;SDS011;33316;52.298;9.056;2023-08-24T00:10:52;0.82;;;0.57;;
47589;SDS011;33316;52.298;9.056;2023-08-24T00:13:19;0.98;;;0.60;;
47589;SDS011;33316;52.298;9.056;2023-08-24T00:15:46;1.10;;;0.70;;
47589;SDS011;33316;52.298;9.056;2023-08-24T00:18:13;6.00;;;0.50;;
47589;SDS011;33316;52.298;9.056;2023-08-24T00:20:41;1.10;;;0.60;;
47589;SDS011;33316;52.298;9.056;2023-08-24T00:23:08;0.85;;;0.60;;
47589;SDS011;33316;52.298;9.056;2023-08-24T00:25:35;0.95;;;0.55;;
47589;SDS011;33316;52.298;9.056;2023-08-24T00:28:02;1.58;;;0.70;;
47589;SDS011;33316;52.298;9.056;2023-08-24T00:30:30;0.80;;;0.60;;
47589;SDS011;33316;52.298;9.056;2023-08-24T00:32:56;1.55;;;0.80;;
47589;SDS011;33316;52.298;9.056;2023-08-24T00:35:23;0.80;;;0.60;;
47589;SDS011;33316;52.298;9.056;2023-08-24T00:37:52;0.90;;;0.70;;
47589;SDS011;33316;52.298;9.056;2023-08-24T00:40:19;0.80;;;0.60;;
47589;SDS011;33316;52.298;9.056;2023-08-24T00:42:46;2.60;;;0.60;;
47589;SDS011;33316;52.298;9.056;2023-08-24T00:45:13;2.00;;;0.73;;
47589;SDS011;33316;52.298;9.056;2023-08-24T00:47:41;1.42;;;0.68;;
47589;SDS011;33316;52.298;9.056;2023-08-24T00:50:10;1.55;;;0.93;;
47589;SDS011;33316;52.298;9.056;2023-08-24T00:52:39;1.30;;;1.00;;
47589;SDS011;33316;52.298;9.056;2023-08-24T00:55:09;2.40;;;0.93;;
47589;SDS011;33316;52.298;9.056;2023-08-24T00:57:37;1.13;;;0.82;;
47589;SDS011;33316;52.298;9.056;2023-08-24T01:00:04;2.38;;;0.70;;
47589;SDS011;33316;52.298;9.056;2023-08-24T01:05:02;1.77;;;0.77;;
47589;SDS011;33316;52.298;9.056;2023-08-24T01:07:30;1.10;;;0.80;;
47589;SDS011;33316;52.298;9.056;2023-08-24T01:09:57;1.75;;;0.70;;
47589;SDS011;33316;52.298;9.056;2023-08-24T01:12:26;1.08;;;0.80;;
47589;SDS011;33316;52.298;9.056;2023-08-24T01:15:00;1.70;;;0.82;;
47589;SDS011;33316;52.298;9.056;2023-08-24T01:17:31;2.00;;;0.80;;
47589;SDS011;33316;52.298;9.056;2023-08-24T01:20:02;2.05;;;0.90;;
47589;SDS011;33316;52.298;9.056;2023-08-24T01:22:33;1.10;;;0.88;;
47589;SDS011;33316;52.298;9.056;2023-08-24T01:25:05;1.10;;;0.70;;
47589;SDS011;33316;52.298;9.056;2023-08-24T01:27:35;3.87;;;0.90;;
47589;SDS011;33316;52.298;9.056;2023-08-24T01:30:04;1.55;;;0.90;;
47589;SDS011;33316;52.298;9.056;2023-08-24T01:32:32;0.70;;;0.60;;
47589;SDS011;33316;52.298;9.056;2023-08-24T01:35:09;1.23;;;0.70;;
47589;SDS011;33316;52.298;9.056;2023-08-24T01:37:36;1.45;;;0.70;;
47589;SDS011;33316;52.298;9.056;2023-08-24T01:40:05;1.05;;;0.70;;
47589;SDS011;33316;52.298;9.056;2023-08-24T01:42:37;0.45;;;0.43;;
47589;SDS011;33316;52.298;9.056;2023-08-24T01:45:11;0.80;;;0.60;;
47589;SDS011;33316;52.298;9.056;2023-08-24T01:47:39;1.23;;;0.57;;
47589;SDS011;33316;52.298;9.056;2023-08-24T01:50:09;1.08;;;0.70;;
47589;SDS011;33316;52.298;9.056;2023-08-24T01:52:36;1.40;;;0.60;;
47589;SDS011;33316;52.298;9.056;2023-08-24T01:55:04;1.80;;;0.77;;
47589;SDS011;33316;52.298;9.056;2023-08-24T01:57:32;1.95;;;0.90;;
47589;SDS011;33316;52.298;9.056;2023-08-24T02:00:00;0.90;;;0.50;;
47589;SDS011;33316;52.298;9.056;2023-08-24T02:02:38;0.90;;;0.77;;
47589;SDS011;33316;52.298;9.056;2023-08-24T02:05:06;0.93;;;0.65;;
47589;SDS011;33316;52.298;9.056;2023-08-24T02:07:33;1.40;;;0.70;;
47589;SDS011;33316;52.298;9.056;2023-08-24T02:10:01;0.70;;;0.63;;
47589;SDS011;33316;52.298;9.056;2023-08-24T02:12:28;2.13;;;0.65;;
47589;SDS011;33316;52.298;9.056;2023-08-24T02:14:54;1.30;;;0.70;;
47589;SDS011;33316;52.298;9.056;2023-08-24T02:17:23;0.90;;;0.60;;
47589;SDS011;33316;52.298;9.056;2023-08-24T02:19:50;1.48;;;0.80;;
47589;SDS011;33316;52.298;9.056;2023-08-24T02:22:16;1.00;;;0.77;;
47589;SDS011;33316;52.298;9.056;2023-08-24T02:24:43;1.20;;;0.73;;
47589;SDS011;33316;52.298;9.056;2023-08-24T02:27:11;1.23;;;0.50;;
47589;SDS011;33316;52.298;9.056;2023-08-24T02:29:39;0.77;;;0.60;;
47589;SDS011;33316;52.298;9.056;2023-08-24T02:32:06;1.00;;;0.70;;
47589;SDS011;33316;52.298;9.056;2023-08-24T02:34:34;1.48;;;0.88;;
47589;SDS011;33316;52.298;9.056;2023-08-24T02:37:01;1.35;;;0.90;;
47589;SDS011;33316;52.298;9.056;2023-08-24T02:39:27;1.40;;;0.93;;
47589;SDS011;33316;52.298;9.056;2023-08-24T02:41:54;2.53;;;0.90;;
47589;SDS011;33316;52.298;9.056;2023-08-24T02:44:21;1.73;;;0.98;;
47589;SDS011;33316;52.298;9.056;2023-08-24T02:46:48;3.13;;;0.93;;
47589;SDS011;33316;52.298;9.056;2023-08-24T02:49:16;1.88;;;0.95;;
47589;SDS011;33316;52.298;9.056;2023-08-24T02:51:44;0.73;;;0.60;;
47589;SDS011;33316;52.298;9.056;2023-08-24T02:54:11;1.20;;;0.80;;
47589;SDS011;33316;52.298;9.056;2023-08-24T02:56:38;1.38;;;0.90;;
47589;SDS011;33316;52.298;9.056;2023-08-24T02:59:05;1.48;;;0.70;;
47589;SDS011;33316;52.298;9.056;2023-08-24T03:01:32;1.13;;;0.75;;
47589;SDS011;33316;52.298;9.056;2023-08-24T03:03:59;1.00;;;0.80;;
47589;SDS011;33316;52.298;9.056;2023-08-24T03:06:26;1.65;;;0.90;;
47589;SDS011;33316;52.298;9.056;2023-08-24T03:08:54;2.22;;;0.90;;
47589;SDS011;33316;52.298;9.056;2023-08-24T03:11:22;1.50;;;0.95;;
47589;SDS011;33316;52.298;9.056;2023-08-24T03:13:48;1.02;;;0.77;;
47589;SDS011;33316;52.298;9.056;2023-08-24T03:16:16;1.70;;;0.88;;
47589;SDS011;33316;52.298;9.056;2023-08-24T03:18:43;1.65;;;0.77;;
47589;SDS011;33316;52.298;9.056;2023-08-24T03:21:10;1.35;;;0.77;;
47589;SDS011;33316;52.298;9.056;2023-08-24T03:23:37;1.30;;;1.02;;
47589;SDS011;33316;52.298;9.056;2023-08-24T03:26:07;1.48;;;0.80;;
47589;SDS011;33316;52.298;9.056;2023-08-24T03:28:34;1.58;;;0.90;;
47589;SDS011;33316;52.298;9.056;2023-08-24T03:31:00;1.75;;;0.95;;
47589;SDS011;33316;52.298;9.056;2023-08-24T03:33:28;1.85;;;0.88;;
47589;SDS011;33316;52.298;9.056;2023-08-24T03:35:55;1.40;;;0.90;;
47589;SDS011;33316;52.298;9.056;2023-08-24T03:38:22;1.23;;;0.80;;
47589;SDS011;33316;52.298;9.056;2023-08-24T03:40:50;1.50;;;0.95;;
47589;SDS011;33316;52.298;9.056;2023-08-24T03:43:18;2.00;;;0.73;;
47589;SDS011;33316;52.298;9.056;2023-08-24T03:45:45;1.88;;;0.90;;
47589;SDS011;33316;52.298;9.056;2023-08-24T03:48:13;0.80;;;0.65;;
47589;SDS011;33316;52.298;9.056;2023-08-24T03:50:41;1.05;;;0.70;;
47589;SDS011;33316;52.298;9.056;2023-08-24T03:53:08;1.48;;;0.88;;
47589;SDS011;33316;52.298;9.056;2023-08-24T03:55:35;0.80;;;0.60;;
47589;SDS011;33316;52.298;9.056;2023-08-24T03:58:03;0.52;;;0.52;;
47589;SDS011;33316;52.298;9.056;2023-08-24T04:00:31;1.98;;;0.55;;
47589;SDS011;33316;52.298;9.056;2023-08-24T04:03:00;1.25;;;0.70;;
47589;SDS011;33316;52.298;9.056;2023-08-24T04:05:27;0.80;;;0.40;;
47589;SDS011;33316;52.298;9.056;2023-08-24T04:07:54;1.45;;;0.70;;
47589;SDS011;33316;52.298;9.056;2023-08-24T04:10:21;1.23;;;0.88;;
47589;SDS011;33316;52.298;9.056;2023-08-24T04:12:49;1.40;;;1.00;;
47589;SDS011;33316;52.298;9.056;2023-08-24T04:15:16;1.52;;;0.70;;
47589;SDS011;33316;52.298;9.056;2023-08-24T04:17:44;0.63;;;0.55;;
47589;SDS011;33316;52.298;9.056;2023-08-24T04:20:11;1.10;;;0.85;;
47589;SDS011;33316;52.298;9.056;2023-08-24T04:22:38;1.20;;;0.80;;
47589;SDS011;33316;52.298;9.056;2023-08-24T04:25:05;0.90;;;0.70;;
47589;SDS011;33316;52.298;9.056;2023-08-24T04:27:32;0.70;;;0.50;;
47589;SDS011;33316;52.298;9.056;2023-08-24T04:29:59;1.85;;;0.90;;
47589;SDS011;33316;52.298;9.056;2023-08-24T04:32:28;2.75;;;0.70;;
47589;SDS011;33316;52.298;9.056;2023-08-24T04:34:56;1.77;;;1.10;;
47589;SDS011;33316;52.298;9.056;2023-08-24T04:37:23;1.20;;;0.73;;
47589;SDS011;33316;52.298;9.056;2023-08-24T04:39:50;4.25;;;1.38;;
47589;SDS011;33316;52.298;9.056;2023-08-24T04:42:17;2.10;;;1.40;;
47589;SDS011;33316;52.298;9.056;2023-08-24T04:44:44;1.27;;;1.10;;
47589;SDS011;33316;52.298;9.056;2023-08-24T04:47:11;3.65;;;1.02;;
47589;SDS011;33316;52.298;9.056;2023-08-24T04:49:37;1.30;;;1.10;;
47589;SDS011;33316;52.298;9.056;2023-08-24T04:52:06;1.85;;;1.20;;
47589;SDS011;33316;52.298;9.056;2023-08-24T04:54:32;1.85;;;0.70;;
47589;SDS011;33316;52.298;9.056;2023-08-24T04:56:59;1.38;;;0.82;;
47589;SDS011;33316;52.298;9.056;2023-08-24T04:59:26;1.45;;;1.00;;
47589;SDS011;33316;52.298;9.056;2023-08-24T05:01:53;1.67;;;0.98;;
47589;SDS011;33316;52.298;9.056;2023-08-24T05:04:20;1.25;;;1.08;;
47589;SDS011;33316;52.298;9.056;2023-08-24T05:06:47;1.40;;;1.00;;
47589;SDS011;33316;52.298;9.056;2023-08-24T05:09:15;2.80;;;1.10;;
47589;SDS011;33316;52.298;9.056;2023-08-24T05:11:43;1.27;;;0.95;;
47589;SDS011;33316;52.298;9.056;2023-08-24T05:14:10;1.75;;;1.10;;
47589;SDS011;33316;52.298;9.056;2023-08-24T05:16:39;2.60;;;1.30;;
47589;SDS011;33316;52.298;9.056;2023-08-24T05:19:06;1.92;;;1.25;;
47589;SDS011;33316;52.298;9.056;2023-08-24T05:21:32;1.90;;;1.02;;
47589;SDS011;33316;52.298;9.056;2023-08-24T05:23:59;1.20;;;0.93;;
47589;SDS011;33316;52.298;9.056;2023-08-24T05:26:27;1.27;;;1.00;;
47589;SDS011;33316;52.298;9.056;2023-08-24T05:28:54;1.55;;;1.08;;
47589;SDS011;33316;52.298;9.056;2023-08-24T05:31:21;1.67;;;1.00;;
47589;SDS011;33316;52.298;9.056;2023-08-24T05:33:48;1.25;;;0.82;;
47589;SDS011;33316;52.298;9.056;2023-08-24T05:36:15;2.58;;;1.30;;
47589;SDS011;33316;52.298;9.056;2023-08-24T05:38:41;1.60;;;1.17;;
47589;SDS011;33316;52.298;9.056;2023-08-24T05:41:12;5.20;;;1.38;;
47589;SDS011;33316;52.298;9.056;2023-08-24T05:43:40;5.32;;;1.38;;
47589;SDS011;33316;52.298;9.056;2023-08-24T05:46:07;2.45;;;1.25;;
47589;SDS011;33316;52.298;9.056;2023-08-24T05:48:34;4.95;;;1.60;;
47589;SDS011;33316;52.298;9.056;2023-08-24T05:51:01;2.45;;;1.20;;
47589;SDS011;33316;52.298;9.056;2023-08-24T05:53:28;1.60;;;1.10;;
47589;SDS011;33316;52.298;9.056;2023-08-24T05:55:57;2.00;;;1.42;;
47589;SDS011;33316;52.298;9.056;2023-08-24T05:58:24;1.88;;;1.35;;
47589;SDS011;33316;52.298;9.056;2023-08-24T06:01:01;2.72;;;1.90;;
47589;SDS011;33316;52.298;9.056;2023-08-24T06:03:28;2.53;;;1.65;;
47589;SDS011;33316;52.298;9.056;2023-08-24T06:06:00;3.20;;;1.88;;
47589;SDS011;33316;52.298;9.056;2023-08-24T06:08:28;3.05;;;1.35;;
47589;SDS011;33316;52.298;9.056;2023-08-24T06:10:56;2.17;;;1.40;;
47589;SDS011;33316;52.298;9.056;2023-08-24T06:13:23;2.20;;;1.52;;
47589;SDS011;33316;52.298;9.056;2023-08-24T06:15:50;2.75;;;1.73;;
47589;SDS011;33316;52.298;9.056;2023-08-24T06:18:18;3.45;;;2.13;;
47589;SDS011;33316;52.298;9.056;2023-08-24T06:20:45;2.58;;;1.35;;
47589;SDS011;33316;52.298;9.056;2023-08-24T06:23:14;3.03;;;1.95;;
47589;SDS011;33316;52.298;9.056;2023-08-24T06:25:42;2.63;;;2.05;;
47589;SDS011;33316;52.298;9.056;2023-08-24T06:28:09;2.30;;;1.70;;
47589;SDS011;33316;52.298;9.056;2023-08-24T06:30:36;4.30;;;1.92;;
47589;SDS011;33316;52.298;9.056;2023-08-24T06:33:04;2.20;;;1.67;;
47589;SDS011;33316;52.298;9.056;2023-08-24T06:35:33;2.38;;;1.10;;
47589;SDS011;33316;52.298;9.056;2023-08-24T06:38:00;2.13;;;1.30;;
47589;SDS011;33316;52.298;9.056;2023-08-24T06:40:27;1.40;;;1.10;;
47589;SDS011;33316;52.298;9.056;2023-08-24T06:42:55;2.13;;;1.48;;
47589;SDS011;33316;52.298;9.056;2023-08-24T06:45:22;1.85;;;1.45;;
47589;SDS011;33316;52.298;9.056;2023-08-24T06:47:49;2.83;;;1.30;;
47589;SDS011;33316;52.298;9.056;2023-08-24T06:50:16;5.10;;;1.80;;
47589;SDS011;33316;52.298;9.056;2023-08-24T06:52:45;3.20;;;2.17;;
47589;SDS011;33316;52.298;9.056;2023-08-24T06:55:12;3.63;;;1.88;;
47589;SDS011;33316;52.298;9.056;2023-08-24T06:57:39;2.97;;;1.42;;
47589;SDS011;33316;52.298;9.056;2023-08-24T07:00:07;1.73;;;1.35;;
47589;SDS011;33316;52.298;9.056;2023-08-24T07:02:34;3.67;;;2.33;;
47589;SDS011;33316;52.298;9.056;2023-08-24T07:05:02;3.03;;;1.75;;
47589;SDS011;33316;52.298;9.056;2023-08-24T07:07:31;3.70;;;2.30;;
47589;SDS011;33316;52.298;9.056;2023-08-24T07:09:59;2.97;;;2.00;;
47589;SDS011;33316;52.298;9.056;2023-08-24T07:12:26;3.78;;;2.88;;
47589;SDS011;33316;52.298;9.056;2023-08-24T07:14:54;7.13;;;3.17;;
47589;SDS011;33316;52.298;9.056;2023-08-24T07:17:21;4.50;;;3.10;;
47589;SDS011;33316;52.298;9.056;2023-08-24T07:19:47;4.53;;;3.40;;
47589;SDS011;33316;52.298;9.056;2023-08-24T07:22:15;5.80;;;2.78;;
47589;SDS011;33316;52.298;9.056;2023-08-24T07:24:42;4.93;;;2.58;;
47589;SDS011;33316;52.298;9.056;2023-08-24T07:27:10;2.40;;;2.00;;
47589;SDS011;33316;52.298;9.056;2023-08-24T07:29:37;4.70;;;2.80;;
47589;SDS011;33316;52.298;9.056;2023-08-24T07:32:04;3.63;;;2.20;;
47589;SDS011;33316;52.298;9.056;2023-08-24T07:34:31;4.28;;;2.33;;
47589;SDS011;33316;52.298;9.056;2023-08-24T07:36:57;5.47;;;2.92;;
47589;SDS011;33316;52.298;9.056;2023-08-24T07:39:24;2.92;;;2.50;;
47589;SDS011;33316;52.298;9.056;2023-08-24T07:41:51;4.28;;;2.55;;
47589;SDS011;33316;52.298;9.056;2023-08-24T07:44:20;3.28;;;1.90;;
47589;SDS011;33316;52.298;9.056;2023-08-24T07:46:47;5.63;;;2.83;;
47589;SDS011;33316;52.298;9.056;2023-08-24T07:49:14;2.85;;;2.20;;
47589;SDS011;33316;52.298;9.056;2023-08-24T07:51:41;2.88;;;2.38;;
47589;SDS011;33316;52.298;9.056;2023-08-24T07:54:09;3.75;;;2.88;;
47589;SDS011;33316;52.298;9.056;2023-08-24T07:56:36;3.95;;;2.45;;
47589;SDS011;33316;52.298;9.056;2023-08-24T07:59:03;3.40;;;2.58;;
47589;SDS011;33316;52.298;9.056;2023-08-24T08:01:31;5.75;;;3.45;;
47589;SDS011;33316;52.298;9.056;2023-08-24T08:03:58;5.15;;;3.40;;
47589;SDS011;33316;52.298;9.056;2023-08-24T08:06:26;6.20;;;3.78;;
47589;SDS011;33316;52.298;9.056;2023-08-24T08:08:54;3.78;;;2.80;;
47589;SDS011;33316;52.298;9.056;2023-08-24T08:11:21;4.95;;;3.00;;
47589;SDS011;33316;52.298;9.056;2023-08-24T08:13:49;4.05;;;3.03;;
47589;SDS011;33316;52.298;9.056;2023-08-24T08:16:15;4.15;;;2.95;;
47589;SDS011;33316;52.298;9.056;2023-08-24T08:18:43;4.95;;;4.05;;
47589;SDS011;33316;52.298;9.056;2023-08-24T08:21:16;4.45;;;3.20;;
47589;SDS011;33316;52.298;9.056;2023-08-24T08:23:44;5.72;;;3.53;;
47589;SDS011;33316;52.298;9.056;2023-08-24T08:26:12;6.47;;;3.97;;
47589;SDS011;33316;52.298;9.056;2023-08-24T08:28:39;5.80;;;3.20;;
47589;SDS011;33316;52.298;9.056;2023-08-24T08:31:06;3.55;;;3.03;;
47589;SDS011;33316;52.298;9.056;2023-08-24T08:33:33;3.70;;;3.10;;
47589;SDS011;33316;52.298;9.056;2023-08-24T08:36:02;4.38;;;2.90;;
47589;SDS011;33316;52.298;9.056;2023-08-24T08:38:29;3.28;;;2.97;;
47589;SDS011;33316;52.298;9.056;2023-08-24T08:40:56;5.15;;;3.25;;
47589;SDS011;33316;52.298;9.056;2023-08-24T08:43:28;4.63;;;3.40;;
47589;SDS011;33316;52.298;9.056;2023-08-24T08:45:56;3.95;;;2.60;;
47589;SDS011;33316;52.298;9.056;2023-08-24T08:48:25;4.20;;;3.08;;
47589;SDS011;33316;52.298;9.056;2023-08-24T08:50:54;3.53;;;2.92;;
47589;SDS011;33316;52.298;9.056;2023-08-24T08:53:23;3.03;;;2.72;;
47589;SDS011;33316;52.298;9.056;2023-08-24T08:55:51;4.28;;;2.80;;
47589;SDS011;33316;52.298;9.056;2023-08-24T08:58:19;4.47;;;2.78;;
47589;SDS011;33316;52.298;9.056;2023-08-24T09:00:47;4.55;;;3.05;;
47589;SDS011;33316;52.298;9.056;2023-08-24T09:03:14;4.32;;;3.10;;
47589;SDS011;33316;52.298;9.056;2023-08-24T09:05:44;4.90;;;2.60;;
47589;SDS011;33316;52.298;9.056;2023-08-24T09:08:13;4.95;;;2.58;;
47589;SDS011;33316;52.298;9.056;2023-08-24T09:10:43;4.13;;;2.33;;
47589;SDS011;33316;52.298;9.056;2023-08-24T09:13:11;3.03;;;2.10;;
47589;SDS011;33316;52.298;9.056;2023-08-24T09:15:38;4.43;;;2.45;;
47589;SDS011;33316;52.298;9.056;2023-08-24T09:18:05;3.58;;;1.98;;
47589;SDS011;33316;52.298;9.056;2023-08-24T09:20:31;4.93;;;2.50;;
47589;SDS011;33316;52.298;9.056;2023-08-24T09:23:00;5.75;;;2.53;;
47589;SDS011;33316;52.298;9.056;2023-08-24T09:25:27;3.92;;;2.80;;
47589;SDS011;33316;52.298;9.056;2023-08-24T09:27:59;4.68;;;2.92;;
47589;SDS011;33316;52.298;9.056;2023-08-24T09:30:29;4.03;;;2.60;;
47589;SDS011;33316;52.298;9.056;2023-08-24T09:33:00;3.83;;;3.03;;
47589;SDS011;33316;52.298;9.056;2023-08-24T09:35:29;6.03;;;2.92;;
47589;SDS011;33316;52.298;9.056;2023-08-24T09:38:15;4.68;;;3.65;;
47589;SDS011;33316;52.298;9.056;2023-08-24T09:40:44;4.03;;;3.00;;
47589;SDS011;33316;52.298;9.056;2023-08-24T09:43:14;5.85;;;3.10;;
47589;SDS011;33316;52.298;9.056;2023-08-24T09:45:47;4.40;;;3.17;;
47589;SDS011;33316;52.298;9.056;2023-08-24T09:48:15;6.15;;;3.97;;
47589;SDS011;33316;52.298;9.056;2023-08-24T09:50:43;6.55;;;4.00;;
47589;SDS011;33316;52.298;9.056;2023-08-24T09:53:12;4.55;;;3.63;;
47589;SDS011;33316;52.298;9.056;2023-08-24T09:55:44;4.13;;;3.20;;
47589;SDS011;33316;52.298;9.056;2023-08-24T09:58:16;4.78;;;3.95;;
47589;SDS011;33316;52.298;9.056;2023-08-24T10:00:43;5.72;;;3.67;;
47589;SDS011;33316;52.298;9.056;2023-08-24T10:03:12;6.47;;;3.47;;
47589;SDS011;33316;52.298;9.056;2023-08-24T10:05:45;4.80;;;3.35;;
47589;SDS011;33316;52.298;9.056;2023-08-24T10:08:20;4.30;;;3.03;;
47589;SDS011;33316;52.298;9.056;2023-08-24T10:10:52;3.53;;;1.88;;
47589;SDS011;33316;52.298;9.056;2023-08-24T10:13:25;4.47;;;2.20;;
47589;SDS011;33316;52.298;9.056;2023-08-24T10:15:57;5.22;;;2.00;;
47589;SDS011;33316;52.298;9.056;2023-08-24T10:18:26;3.72;;;1.98;;
47589;SDS011;33316;52.298;9.056;2023-08-24T10:20:53;3.05;;;1.75;;
47589;SDS011;33316;52.298;9.056;2023-08-24T10:23:21;2.80;;;1.95;;
47589;SDS011;33316;52.298;9.056;2023-08-24T10:25:49;3.45;;;1.83;;
47589;SDS011;33316;52.298;9.056;2023-08-24T10:28:18;2.70;;;1.50;;
47589;SDS011;33316;52.298;9.056;2023-08-24T10:30:47;3.42;;;1.95;;
47589;SDS011;33316;52.298;9.056;2023-08-24T10:33:18;2.78;;;1.85;;
47589;SDS011;33316;52.298;9.056;2023-08-24T10:35:46;4.10;;;1.73;;
47589;SDS011;33316;52.298;9.056;2023-08-24T10:38:24;4.78;;;2.88;;
47589;SDS011;33316;52.298;9.056;2023-08-24T10:40:52;2.78;;;1.90;;
47589;SDS011;33316;52.298;9.056;2023-08-24T10:43:20;2.95;;;2.03;;
47589;SDS011;33316;52.298;9.056;2023-08-24T10:45:57;4.95;;;1.83;;
47589;SDS011;33316;52.298;9.056;2023-08-24T10:48:24;3.05;;;1.30;;
47589;SDS011;33316;52.298;9.056;2023-08-24T10:53:46;2.60;;;1.52;;
47589;SDS011;33316;52.298;9.056;2023-08-24T10:56:15;3.28;;;1.33;;
47589;SDS011;33316;52.298;9.056;2023-08-24T10:58:43;2.70;;;1.67;;
47589;SDS011;33316;52.298;9.056;2023-08-24T11:01:16;3.22;;;1.25;;
47589;SDS011;33316;52.298;9.056;2023-08-24T11:03:48;3.92;;;1.90;;
47589;SDS011;33316;52.298;9.056;2023-08-24T11:06:17;3.08;;;2.03;;
47589;SDS011;33316;52.298;9.056;2023-08-24T11:08:45;2.47;;;1.42;;
47589;SDS011;33316;52.298;9.056;2023-08-24T11:11:18;2.40;;;1.23;;
47589;SDS011;33316;52.298;9.056;2023-08-24T11:16:46;1.77;;;1.25;;
47589;SDS011;33316;52.298;9.056;2023-08-24T11:19:13;2.97;;;1.30;;
47589;SDS011;33316;52.298;9.056;2023-08-24T11:21:42;3.40;;;1.60;;
47589;SDS011;33316;52.298;9.056;2023-08-24T11:24:09;2.65;;;1.10;;
47589;SDS011;33316;52.298;9.056;2023-08-24T11:26:39;4.72;;;1.80;;
47589;SDS011;33316;52.298;9.056;2023-08-24T11:29:07;3.65;;;1.48;;
47589;SDS011;33316;52.298;9.056;2023-08-24T11:31:35;3.65;;;1.83;;
47589;SDS011;33316;52.298;9.056;2023-08-24T11:34:03;2.38;;;1.55;;
47589;SDS011;33316;52.298;9.056;2023-08-24T11:36:30;2.45;;;1.33;;
47589;SDS011;33316;52.298;9.056;2023-08-24T11:38:58;1.50;;;1.23;;
47589;SDS011;33316;52.298;9.056;2023-08-24T11:41:25;2.15;;;1.23;;
47589;SDS011;33316;52.298;9.056;2023-08-24T11:44:00;1.70;;;1.40;;
47589;SDS011;33316;52.298;9.056;2023-08-24T11:46:28;1.38;;;1.05;;
47589;SDS011;33316;52.298;9.056;2023-08-24T11:48:56;3.30;;;1.23;;
47589;SDS011;33316;52.298;9.056;2023-08-24T11:51:26;2.95;;;1.27;;
47589;SDS011;33316;52.298;9.056;2023-08-24T11:53:53;2.08;;;1.40;;
47589;SDS011;33316;52.298;9.056;2023-08-24T11:56:21;1.55;;;1.35;;
47589;SDS011;33316;52.298;9.056;2023-08-24T11:58:49;3.53;;;1.77;;
47589;SDS011;33316;52.298;9.056;2023-08-24T12:01:17;2.05;;;1.33;;
47589;SDS011;33316;52.298;9.056;2023-08-24T12:03:44;2.65;;;1.40;;
47589;SDS011;33316;52.298;9.056;2023-08-24T12:06:12;3.17;;;1.38;;
47589;SDS011;33316;52.298;9.056;2023-08-24T12:08:42;3.28;;;1.38;;
47589;SDS011;33316;52.298;9.056;2023-08-24T12:13:42;3.15;;;1.27;;
47589;SDS011;33316;52.298;9.056;2023-08-24T12:16:10;2.22;;;1.08;;
47589;SDS011;33316;52.298;9.056;2023-08-24T12:18:46;2.65;;;1.10;;
47589;SDS011;33316;52.298;9.056;2023-08-24T12:21:14;1.75;;;1.10;;
47589;SDS011;33316;52.298;9.056;2023-08-24T12:23:42;3.03;;;0.90;;
47589;SDS011;33316;52.298;9.056;2023-08-24T12:26:17;1.88;;;1.00;;
47589;SDS011;33316;52.298;9.056;2023-08-24T12:28:48;1.35;;;1.10;;
47589;SDS011;33316;52.298;9.056;2023-08-24T12:31:17;1.63;;;1.17;;
47589;SDS011;33316;52.298;9.056;2023-08-24T12:33:44;2.35;;;1.30;;
47589;SDS011;33316;52.298;9.056;2023-08-24T12:36:12;1.85;;;0.90;;
47589;SDS011;33316;52.298;9.056;2023-08-24T12:38:39;3.15;;;1.23;;
47589;SDS011;33316;52.298;9.056;2023-08-24T12:41:09;1.73;;;0.95;;
47589;SDS011;33316;52.298;9.056;2023-08-24T12:43:36;2.92;;;1.20;;
47589;SDS011;33316;52.298;9.056;2023-08-24T12:46:03;2.17;;;1.02;;
47589;SDS011;33316;52.298;9.056;2023-08-24T12:48:30;2.47;;;1.00;;
47589;SDS011;33316;52.298;9.056;2023-08-24T12:51:00;2.20;;;1.10;;
47589;SDS011;33316;52.298;9.056;2023-08-24T12:53:27;2.22;;;1.00;;
47589;SDS011;33316;52.298;9.056;2023-08-24T12:55:53;2.17;;;1.13;;
47589;SDS011;33316;52.298;9.056;2023-08-24T12:58:22;1.73;;;1.02;;
47589;SDS011;33316;52.298;9.056;2023-08-24T13:00:49;1.45;;;1.10;;
47589;SDS011;33316;52.298;9.056;2023-08-24T13:03:16;3.58;;;1.20;;
47589;SDS011;33316;52.298;9.056;2023-08-24T13:05:43;2.47;;;1.02;;
47589;SDS011;33316;52.298;9.056;2023-08-24T13:08:10;2.42;;;1.10;;
47589;SDS011;33316;52.298;9.056;2023-08-24T13:10:37;2.00;;;0.90;;
47589;SDS011;33316;52.298;9.056;2023-08-24T13:13:03;2.03;;;1.20;;
47589;SDS011;33316;52.298;9.056;2023-08-24T13:15:32;1.80;;;1.15;;
47589;SDS011;33316;52.298;9.056;2023-08-24T13:17:59;2.53;;;0.95;;
47589;SDS011;33316;52.298;9.056;2023-08-24T13:20:26;1.92;;;1.23;;
47589;SDS011;33316;52.298;9.056;2023-08-24T13:22:52;1.98;;;1.02;;
47589;SDS011;33316;52.298;9.056;2023-08-24T13:25:19;1.58;;;0.88;;
47589;SDS011;33316;52.298;9.056;2023-08-24T13:27:46;1.90;;;1.15;;
47589;SDS011;33316;52.298;9.056;2023-08-24T13:30:13;1.65;;;1.10;;
47589;SDS011;33316;52.298;9.056;2023-08-24T13:32:41;1.52;;;0.90;;
47589;SDS011;33316;52.298;9.056;2023-08-24T13:35:09;2.05;;;1.02;;
47589;SDS011;33316;52.298;9.056;2023-08-24T13:37:35;1.35;;;1.00;;
47589;SDS011;33316;52.298;9.056;2023-08-24T13:40:02;1.50;;;1.05;;
47589;SDS011;33316;52.298;9.056;2023-08-24T13:42:30;2.25;;;1.20;;
47589;SDS011;33316;52.298;9.056;2023-08-24T13:44:57;2.47;;;1.00;;
47589;SDS011;33316;52.298;9.056;2023-08-24T13:47:24;2.10;;;0.98;;
47589;SDS011;33316;52.298;9.056;2023-08-24T13:49:52;3.47;;;1.10;;
47589;SDS011;33316;52.298;9.056;2023-08-24T13:52:19;1.83;;;0.70;;
47589;SDS011;33316;52.298;9.056;2023-08-24T13:54:46;2.22;;;1.02;;
47589;SDS011;33316;52.298;9.056;2023-08-24T13:57:13;1.15;;;0.73;;
47589;SDS011;33316;52.298;9.056;2023-08-24T13:59:40;2.08;;;0.82;;
47589;SDS011;33316;52.298;9.056;2023-08-24T14:02:07;3.75;;;1.48;;
47589;SDS011;33316;52.298;9.056;2023-08-24T14:04:34;1.33;;;0.98;;
47589;SDS011;33316;52.298;9.056;2023-08-24T14:07:02;2.10;;;0.90;;
47589;SDS011;33316;52.298;9.056;2023-08-24T14:09:30;3.80;;;1.27;;
47589;SDS011;33316;52.298;9.056;2023-08-24T14:11:57;4.18;;;1.45;;
47589;SDS011;33316;52.298;9.056;2023-08-24T14:14:24;1.48;;;1.10;;
47589;SDS011;33316;52.298;9.056;2023-08-24T14:16:54;2.08;;;0.80;;
47589;SDS011;33316;52.298;9.056;2023-08-24T14:19:23;7.95;;;1.70;;
47589;SDS011;33316;52.298;9.056;2023-08-24T14:21:50;2.17;;;1.10;;
47589;SDS011;33316;52.298;9.056;2023-08-24T14:24:19;1.67;;;1.20;;
47589;SDS011;33316;52.298;9.056;2023-08-24T14:26:45;2.35;;;1.42;;
47589;SDS011;33316;52.298;9.056;2023-08-24T14:29:12;2.88;;;1.33;;
47589;SDS011;33316;52.298;9.056;2023-08-24T14:31:40;2.20;;;1.08;;
47589;SDS011;33316;52.298;9.056;2023-08-24T14:34:07;2.75;;;1.02;;
47589;SDS011;33316;52.298;9.056;2023-08-24T14:36:34;2.50;;;1.10;;
47589;SDS011;33316;52.298;9.056;2023-08-24T14:39:01;2.35;;;1.13;;
47589;SDS011;33316;52.298;9.056;2023-08-24T14:41:29;2.75;;;1.42;;
47589;SDS011;33316;52.298;9.056;2023-08-24T14:43:56;3.33;;;1.15;;
47589;SDS011;33316;52.298;9.056;2023-08-24T14:46:23;3.67;;;1.50;;
47589;SDS011;33316;52.298;9.056;2023-08-24T14:48:50;2.03;;;1.15;;
47589;SDS011;33316;52.298;9.056;2023-08-24T14:51:17;2.17;;;1.23;;
47589;SDS011;33316;52.298;9.056;2023-08-24T14:53:44;4.32;;;1.15;;
47589;SDS011;33316;52.298;9.056;2023-08-24T14:56:11;2.38;;;0.85;;
47589;SDS011;33316;52.298;9.056;2023-08-24T14:58:39;2.60;;;1.13;;
47589;SDS011;33316;52.298;9.056;2023-08-24T15:01:06;3.70;;;1.13;;
47589;SDS011;33316;52.298;9.056;2023-08-24T15:03:33;3.15;;;0.95;;